Time;durP1;ratioP1;P1;durP2;ratioP2;P2;SDS_P1;SDS_P2;PMS_P1;PMS_P2;Temp;Humidity;BMP_temperature;BMP_pressure;BME280_temperature;BME280_humidity;BME280_pressure;Samples;Min_cycle;Max_cycle;Signal;HPM_P1;HPM_P2
2022/07/09 00:00:07;;;;;;;5.10;3.20;;;24.50;67.50;;;;;;6128847;23;20408;-72
2022/07/09 00:02:39;;;;;;;4.50;3.53;;;24.50;67.50;;;;;;6178660;23;20420;-72
2022/07/09 00:05:12;;;;;;;3.73;3.40;;;24.50;67.50;;;;;;6129419;23;20393;-72
2022/07/09 00:07:40;;;;;;;3.17;2.70;;;24.50;67.50;;;;;;6155011;23;20686;-72
2022/07/09 00:10:06;;;;;;;4.27;3.40;;;24.50;67.50;;;;;;6154977;23;20472;-72
2022/07/09 00:12:33;;;;;;;6.80;3.43;;;24.50;67.60;;;;;;6178521;23;20362;-72
2022/07/09 00:15:02;;;;;;;7.73;3.77;;;24.50;67.60;;;;;;6178047;23;20385;-72
2022/07/09 00:17:30;;;;;;;3.43;3.10;;;24.40;67.50;;;;;;6153686;23;20484;-72
2022/07/09 00:19:56;;;;;;;4.33;3.00;;;24.40;67.60;;;;;;6128760;23;20421;-72
2022/07/09 00:22:23;;;;;;;4.97;3.57;;;24.40;67.60;;;;;;6153704;23;20373;-72
2022/07/09 00:24:51;;;;;;;4.50;3.07;;;24.40;67.60;;;;;;6128797;23;20447;-72
2022/07/09 00:27:17;;;;;;;4.27;3.27;;;24.40;67.70;;;;;;6154895;23;20464;-72
2022/07/09 00:29:45;;;;;;;3.03;2.50;;;24.40;67.70;;;;;;6154947;23;20429;-72
2022/07/09 00:32:11;;;;;;;4.07;3.40;;;24.40;67.70;;;;;;6178187;23;20382;-72
2022/07/09 00:34:45;;;;;;;3.50;3.00;;;24.30;67.60;;;;;;6130072;23;20464;-72
2022/07/09 00:37:11;;;;;;;4.30;3.07;;;24.40;67.80;;;;;;6153014;23;20444;-72
2022/07/09 00:39:41;;;;;;;4.33;2.83;;;24.30;67.60;;;;;;6130056;23;20908;-72
2022/07/09 00:42:11;;;;;;;4.13;2.80;;;24.30;67.70;;;;;;6178117;23;20796;-72
2022/07/09 00:44:37;;;;;;;3.90;2.83;;;24.30;67.80;;;;;;6178359;23;20432;-72
2022/07/09 00:47:07;;;;;;;4.40;2.37;;;24.30;67.80;;;;;;6153060;23;20908;-72
2022/07/09 00:49:41;;;;;;;4.10;2.60;;;24.20;67.70;;;;;;6152977;23;20467;-72
2022/07/09 00:52:09;;;;;;;3.40;2.60;;;24.30;67.90;;;;;;6155035;23;20377;-72
2022/07/09 00:54:36;;;;;;;3.00;2.70;;;24.20;67.70;;;;;;6153305;23;20397;-72
2022/07/09 00:57:05;;;;;;;4.50;2.93;;;24.20;67.80;;;;;;6154626;23;20366;-72
2022/07/09 00:59:32;;;;;;;3.70;2.67;;;24.20;67.80;;;;;;6154505;23;20907;-72
2022/07/09 01:02:02;;;;;;;3.17;2.70;;;24.20;68.70;;;;;;6153278;23;20373;-72
2022/07/09 01:04:28;;;;;;;2.77;2.40;;;24.20;67.80;;;;;;6152998;23;20405;-72
2022/07/09 01:06:58;;;;;;;3.87;2.40;;;24.10;67.70;;;;;;6143710;23;20829;-72
2022/07/09 01:09:26;;;;;;;5.73;2.40;;;24.20;67.90;;;;;;6177459;23;20787;-72
2022/07/09 01:11:52;;;;;;;3.00;2.30;;;24.10;67.80;;;;;;6177731;23;20373;-72
2022/07/09 01:14:20;;;;;;;3.83;2.73;;;24.10;67.80;;;;;;6104625;23;20596;-72
2022/07/09 01:16:56;;;;;;;2.70;2.23;;;24.10;67.80;;;;;;6152378;23;20365;-72
2022/07/09 01:19:24;;;;;;;3.43;2.77;;;24.10;67.80;;;;;;6154425;23;20738;-72
2022/07/09 01:21:53;;;;;;;3.83;2.53;;;24.10;67.90;;;;;;6154583;23;20389;-72
2022/07/09 01:24:23;;;;;;;2.93;2.47;;;24.10;68.00;;;;;;6177806;23;20783;-72
2022/07/09 01:26:54;;;;;;;2.60;2.23;;;24.10;68.00;;;;;;6177548;23;20390;-72
2022/07/09 01:29:21;;;;;;;2.43;2.23;;;24.00;67.90;;;;;;6152485;23;20492;-72
2022/07/09 01:31:47;;;;;;;3.10;2.33;;;24.00;68.00;;;;;;6154586;23;20362;-72
2022/07/09 01:34:13;;;;;;;2.90;2.40;;;24.00;68.00;;;;;;6152844;23;20404;-72
2022/07/09 01:36:39;;;;;;;3.13;2.43;;;24.00;68.00;;;;;;6177785;23;20390;-72
2022/07/09 01:39:05;;;;;;;2.47;2.27;;;24.00;68.00;;;;;;6177542;23;20433;-72
2022/07/09 01:41:32;;;;;;;2.83;2.10;;;23.90;68.00;;;;;;6153863;23;20369;-72
2022/07/09 01:43:58;;;;;;;4.23;2.57;;;23.90;68.00;;;;;;6177721;23;20405;-72
2022/07/09 01:46:28;;;;;;;2.73;2.53;;;23.90;68.00;;;;;;6128249;23;20397;-72
2022/07/09 01:48:57;;;;;;;2.80;2.20;;;23.90;68.00;;;;;;6152177;23;20439;-72
2022/07/09 01:51:25;;;;;;;5.23;2.40;;;23.90;68.00;;;;;;6128362;23;20433;-72
2022/07/09 01:53:51;;;;;;;2.40;2.20;;;23.90;68.00;;;;;;6177254;23;20385;-72
2022/07/09 01:56:17;;;;;;;2.87;2.57;;;23.90;68.10;;;;;;6154347;23;20377;-72
2022/07/09 01:58:44;;;;;;;2.80;2.50;;;23.80;68.00;;;;;;6177407;23;20459;-72
2022/07/09 02:01:12;;;;;;;3.10;2.40;;;23.90;68.10;;;;;;6154209;23;20695;-72
2022/07/09 02:03:38;;;;;;;3.23;2.63;;;23.80;68.10;;;;;;6103809;23;20382;-72
2022/07/09 02:06:07;;;;;;;2.63;2.30;;;23.80;68.10;;;;;;6177298;23;20460;-72
2022/07/09 02:08:36;;;;;;;1.97;1.70;;;23.80;68.00;;;;;;6153792;23;20405;-72
2022/07/09 02:11:03;;;;;;;3.10;2.80;;;23.80;68.20;;;;;;6154028;23;20437;-72
2022/07/09 02:13:29;;;;;;;3.33;2.20;;;23.80;68.20;;;;;;6152289;23;20488;-72
2022/07/09 02:16:00;;;;;;;2.53;2.27;;;23.80;68.30;;;;;;6154013;23;20368;-72
2022/07/09 02:18:26;;;;;;;4.03;2.50;;;23.80;68.20;;;;;;6177325;23;20713;-72
2022/07/09 02:20:52;;;;;;;2.67;2.30;;;23.80;68.20;;;;;;6153948;23;20379;-72
2022/07/09 02:23:21;;;;;;;2.93;2.30;;;23.70;68.10;;;;;;6177277;23;20716;-72
2022/07/09 02:25:49;;;;;;;3.13;2.70;;;23.70;68.10;;;;;;6127893;23;20385;-72
2022/07/09 02:28:17;;;;;;;3.17;2.30;;;23.70;68.30;;;;;;6152465;23;20764;-72
2022/07/09 02:30:45;;;;;;;3.20;2.20;;;23.70;68.30;;;;;;6177268;23;21007;-72
2022/07/09 02:33:20;;;;;;;2.70;2.50;;;23.70;68.30;;;;;;6177198;23;20853;-72
2022/07/09 02:35:46;;;;;;;2.87;2.30;;;23.70;68.30;;;;;;6176829;23;20413;-72
2022/07/09 02:38:15;;;;;;;1.90;1.70;;;23.70;68.40;;;;;;6153822;23;20372;-72
2022/07/09 02:40:41;;;;;;;3.13;2.43;;;23.70;68.40;;;;;;6152415;23;20375;-72
2022/07/09 02:43:07;;;;;;;2.70;2.50;;;23.70;68.40;;;;;;6154153;23;20424;-72
2022/07/09 02:45:32;;;;;;;2.70;2.40;;;23.60;68.40;;;;;;6176707;23;20405;-72
2022/07/09 02:47:59;;;;;;;2.57;2.37;;;23.60;68.40;;;;;;6176936;23;20409;-72
2022/07/09 02:50:25;;;;;;;2.70;2.23;;;23.60;68.40;;;;;;6152052;23;20437;-72
2022/07/09 02:52:53;;;;;;;2.20;2.00;;;23.60;68.40;;;;;;6152439;23;20353;-72
2022/07/09 02:55:22;;;;;;;2.53;2.33;;;23.60;68.50;;;;;;6152472;23;20427;-72
2022/07/09 02:57:50;;;;;;;3.03;2.03;;;23.60;68.50;;;;;;6151223;23;20358;-72
2022/07/09 03:00:16;;;;;;;2.97;2.60;;;23.50;68.80;;;;;;6153692;23;20400;-72
2022/07/09 03:02:42;;;;;;;4.73;2.37;;;23.50;68.50;;;;;;6153550;23;20388;-72
2022/07/09 03:05:09;;;;;;;4.50;2.77;;;23.50;68.50;;;;;;6153797;23;20373;-72
2022/07/09 03:07:35;;;;;;;4.57;2.40;;;23.50;68.60;;;;;;6153801;23;20380;-72
2022/07/09 03:10:22;;;;;;;2.97;2.70;;;23.50;68.70;;;;;;6153548;23;20431;-72
2022/07/09 03:12:48;;;;;;;2.90;2.50;;;23.40;68.50;;;;;;6154026;23;20448;-72
2022/07/09 03:15:17;;;;;;;2.60;2.40;;;23.50;68.70;;;;;;6151823;23;20358;-72
2022/07/09 03:17:44;;;;;;;3.83;2.67;;;23.40;68.50;;;;;;6152517;23;20378;-72
2022/07/09 03:20:13;;;;;;;2.50;2.30;;;23.40;68.70;;;;;;6154088;23;20397;-72
2022/07/09 03:22:44;;;;;;;2.67;2.33;;;23.40;68.70;;;;;;6152129;23;20362;-72
2022/07/09 03:25:10;;;;;;;2.67;2.40;;;23.40;68.80;;;;;;6154031;23;20427;-72
2022/07/09 03:27:39;;;;;;;2.60;2.40;;;23.40;68.80;;;;;;6127625;23;20423;-72
2022/07/09 03:30:07;;;;;;;2.50;2.30;;;23.40;68.80;;;;;;6151849;23;20523;-72
2022/07/09 03:32:33;;;;;;;2.97;2.40;;;23.40;68.90;;;;;;6176901;23;20386;-72
2022/07/09 03:34:59;;;;;;;3.53;2.40;;;23.40;69.00;;;;;;6152646;23;20420;-72
2022/07/09 03:37:31;;;;;;;2.30;2.10;;;23.40;69.00;;;;;;6130919;23;20408;-72
2022/07/09 03:39:58;;;;;;;3.50;2.70;;;23.30;68.90;;;;;;6155475;23;20401;-72
2022/07/09 03:42:25;;;;;;;3.20;2.57;;;23.30;68.90;;;;;;6153762;23;20189;-72
2022/07/09 03:44:53;;;;;;;3.30;2.70;;;23.30;68.90;;;;;;6178494;23;20370;-72
2022/07/09 03:47:23;;;;;;;2.73;2.53;;;23.30;68.90;;;;;;6129602;23;20421;-72
2022/07/09 03:49:49;;;;;;;2.47;2.27;;;23.30;69.10;;;;;;6153855;23;20432;-72
2022/07/09 03:52:15;;;;;;;2.87;2.40;;;23.30;69.10;;;;;;6129270;23;20697;-72
2022/07/09 03:54:41;;;;;;;2.47;2.27;;;23.30;69.10;;;;;;6154990;23;20783;-72
2022/07/09 03:57:07;;;;;;;3.07;1.90;;;23.30;69.20;;;;;;6178659;23;21031;-72
2022/07/09 03:59:33;;;;;;;2.90;2.23;;;23.30;69.20;;;;;;6153778;23;20407;-72
2022/07/09 04:02:04;;;;;;;2.40;2.20;;;23.20;69.30;;;;;;6153443;23;20413;-72
2022/07/09 04:04:30;;;;;;;3.33;2.80;;;23.20;69.20;;;;;;6178673;23;20416;-72
2022/07/09 04:06:58;;;;;;;3.00;2.13;;;23.20;69.20;;;;;;6155217;23;20409;-72
2022/07/09 04:09:27;;;;;;;3.23;2.53;;;23.20;69.40;;;;;;6153429;23;20413;-72
2022/07/09 04:11:53;;;;;;;3.67;2.77;;;23.20;69.50;;;;;;6155411;23;20369;-72
2022/07/09 04:14:19;;;;;;;2.63;2.43;;;23.20;69.60;;;;;;6153290;23;20401;-72
2022/07/09 04:16:46;;;;;;;2.93;2.63;;;23.20;69.70;;;;;;6153573;23;20423;-72
2022/07/09 04:19:14;;;;;;;3.27;2.77;;;23.20;69.70;;;;;;6153664;23;20393;-72
2022/07/09 04:21:40;;;;;;;3.00;2.70;;;23.20;69.80;;;;;;6155131;23;20456;-72
2022/07/09 04:24:06;;;;;;;2.67;2.47;;;23.10;69.70;;;;;;6153397;23;20388;-72
2022/07/09 04:26:43;;;;;;;3.90;2.73;;;23.10;69.60;;;;;;6176964;23;20431;-72
2022/07/09 04:29:11;;;;;;;2.90;2.70;;;23.10;69.70;;;;;;6177931;23;20405;-72
2022/07/09 04:31:39;;;;;;;2.70;2.50;;;23.10;69.70;;;;;;6129631;23;20393;-72
2022/07/09 04:34:05;;;;;;;3.80;2.37;;;23.10;69.70;;;;;;6154939;23;20368;-72
2022/07/09 04:36:31;;;;;;;3.70;2.70;;;23.10;69.60;;;;;;6178170;23;20745;-72
2022/07/09 04:38:57;;;;;;;2.70;2.50;;;23.10;69.80;;;;;;6128649;23;20468;-72
2022/07/09 04:41:28;;;;;;;3.00;2.70;;;23.10;69.90;;;;;;6178526;23;20389;-72
2022/07/09 04:43:55;;;;;;;2.57;2.37;;;23.10;70.00;;;;;;6154184;23;20866;-72
2022/07/09 04:46:27;;;;;;;3.20;2.53;;;23.00;69.90;;;;;;6177703;23;20404;-72
2022/07/09 04:48:55;;;;;;;2.87;2.67;;;23.00;70.00;;;;;;6153146;23;20408;-72
2022/07/09 04:51:21;;;;;;;2.60;2.40;;;23.00;70.00;;;;;;6154576;23;20413;-72
2022/07/09 04:53:49;;;;;;;2.53;2.33;;;23.00;70.00;;;;;;6154604;23;20142;-72
2022/07/09 04:56:18;;;;;;;3.10;2.33;;;23.00;70.10;;;;;;6178257;23;20365;-72
2022/07/09 04:58:51;;;;;;;3.47;2.50;;;23.00;70.20;;;;;;6178006;23;20437;-72
2022/07/09 05:01:23;;;;;;;2.70;2.50;;;23.00;70.40;;;;;;6177967;23;20388;-72
2022/07/09 05:03:52;;;;;;;3.03;2.43;;;23.00;70.40;;;;;;6128378;23;20481;-72
2022/07/09 05:06:18;;;;;;;4.60;2.57;;;23.00;70.20;;;;;;6178122;23;20749;-72
2022/07/09 05:08:48;;;;;;;3.50;2.50;;;23.00;70.30;;;;;;6153015;23;20408;-72
2022/07/09 05:11:16;;;;;;;3.10;2.20;;;23.00;70.50;;;;;;6153063;23;20413;-72
2022/07/09 05:13:48;;;;;;;3.30;2.80;;;23.00;70.40;;;;;;6171123;23;20392;-72
2022/07/09 05:16:18;;;;;;;3.10;2.80;;;22.90;70.40;;;;;;6154096;23;20373;-72
2022/07/09 05:18:44;;;;;;;3.03;2.73;;;22.90;70.60;;;;;;6154547;23;20495;-72
2022/07/09 05:21:10;;;;;;;3.03;2.73;;;22.90;70.60;;;;;;6154657;23;20763;-72
2022/07/09 05:23:36;;;;;;;3.67;2.70;;;22.90;70.60;;;;;;6128276;23;20158;-72
2022/07/09 05:26:02;;;;;;;2.70;2.50;;;22.90;70.80;;;;;;6128519;23;20397;-72
2022/07/09 05:28:28;;;;;;;4.47;2.90;;;22.90;70.90;;;;;;6152530;23;20820;-72
2022/07/09 05:30:54;;;;;;;4.60;3.03;;;22.90;71.00;;;;;;6128203;23;20416;-72
2022/07/09 05:33:22;;;;;;;3.70;2.60;;;22.90;71.10;;;;;;6154419;23;20409;-72
2022/07/09 05:35:48;;;;;;;2.73;2.53;;;22.90;71.10;;;;;;6128443;23;20379;-71
2022/07/09 05:38:17;;;;;;;4.27;2.90;;;22.90;71.30;;;;;;6179062;23;20422;-70
2022/07/09 05:40:43;;;;;;;5.17;3.07;;;22.90;71.20;;;;;;6154009;23;20496;-70
2022/07/09 05:43:09;;;;;;;2.60;2.40;;;22.90;71.40;;;;;;6154766;23;20373;-70
2022/07/09 05:45:37;;;;;;;2.70;2.43;;;22.90;71.60;;;;;;6178822;23;20405;-72
2022/07/09 05:48:03;;;;;;;2.93;2.73;;;22.90;71.60;;;;;;6155768;23;20374;-70
2022/07/09 05:50:29;;;;;;;4.33;3.10;;;22.90;71.70;;;;;;6153026;23;20571;-70
2022/07/09 05:52:57;;;;;;;3.90;3.50;;;22.90;72.00;;;;;;6177125;23;20395;-70
2022/07/09 05:55:26;;;;;;;3.60;3.30;;;22.80;71.70;;;;;;6127586;23;21147;-70
2022/07/09 05:57:57;;;;;;;4.03;3.43;;;22.80;71.80;;;;;;6153776;23;20444;-70
2022/07/09 06:00:23;;;;;;;3.80;3.20;;;22.80;72.00;;;;;;6176790;23;20506;-70
2022/07/09 06:02:51;;;;;;;4.03;3.70;;;22.80;71.90;;;;;;6127405;23;20389;-71
2022/07/09 06:05:19;;;;;;;4.63;3.73;;;22.80;71.80;;;;;;6177026;23;20248;-70
2022/07/09 06:07:48;;;;;;;4.53;4.13;;;22.80;72.00;;;;;;6176762;23;20385;-71
2022/07/09 06:10:16;;;;;;;6.53;3.67;;;22.80;72.30;;;;;;6151686;23;20511;-70
2022/07/09 06:12:45;;;;;;;5.30;4.10;;;22.80;72.40;;;;;;6152909;23;20420;-70
2022/07/09 06:15:16;;;;;;;6.00;3.90;;;22.80;72.50;;;;;;6152385;23;20429;-70
2022/07/09 06:17:42;;;;;;;5.73;4.10;;;22.80;72.60;;;;;;6176359;23;20362;-70
2022/07/09 06:20:09;;;;;;;4.77;4.13;;;22.80;72.60;;;;;;6153777;23;20408;-71
2022/07/09 06:22:38;;;;;;;4.50;3.97;;;22.80;72.70;;;;;;6153550;23;20373;-70
2022/07/09 06:25:05;;;;;;;5.47;4.37;;;22.80;73.00;;;;;;6176527;23;20396;-70
2022/07/09 06:27:31;;;;;;;4.70;3.93;;;22.80;73.00;;;;;;6177097;23;20690;-70
2022/07/09 06:29:59;;;;;;;5.00;4.50;;;22.80;73.00;;;;;;6152838;23;20442;-70
2022/07/09 06:32:28;;;;;;;4.70;4.30;;;22.80;73.20;;;;;;6152706;23;20145;-71
2022/07/09 06:34:56;;;;;;;5.20;4.60;;;22.80;73.40;;;;;;6152634;23;20393;-71
2022/07/09 06:37:22;;;;;;;4.70;4.20;;;22.80;73.20;;;;;;6124086;23;20396;-71
2022/07/09 06:39:49;;;;;;;6.10;3.80;;;22.80;73.10;;;;;;6153933;23;20459;-71
2022/07/09 06:42:21;;;;;;;4.40;4.00;;;22.80;73.10;;;;;;6177853;23;20507;31
2022/07/09 06:44:58;;;;;;;7.07;4.43;;;22.80;73.10;;;;;;6142922;23;20461;-75
2022/07/09 06:47:24;;;;;;;5.93;5.03;;;22.80;73.00;;;;;;6145146;23;20414;-74
2022/07/09 06:49:52;;;;;;;6.00;4.47;;;22.80;72.90;;;;;;6163212;23;20645;-74
2022/07/09 06:52:21;;;;;;;6.47;5.10;;;22.80;73.00;;;;;;6148782;23;21227;-74
2022/07/09 06:54:46;;;;;;;4.57;3.73;;;22.80;73.00;;;;;;6150476;23;20460;-74
2022/07/09 06:57:13;;;;;;;5.40;4.57;;;22.80;73.00;;;;;;6149307;23;20416;-75
2022/07/09 06:59:43;;;;;;;5.87;4.43;;;22.80;73.00;;;;;;6174206;23;20479;-74
2022/07/09 07:02:09;;;;;;;6.10;4.57;;;22.80;73.70;;;;;;6174654;23;20392;-74
2022/07/09 07:04:35;;;;;;;5.60;4.57;;;22.80;72.70;;;;;;6125515;23;20926;-74
2022/07/09 07:07:04;;;;;;;7.73;5.43;;;22.80;72.70;;;;;;6151281;23;20369;-74
2022/07/09 07:09:30;;;;;;;4.90;4.40;;;22.80;72.70;;;;;;6150820;23;20793;-74
2022/07/09 07:11:58;;;;;;;5.50;4.73;;;22.80;72.80;;;;;;6151382;23;20389;-76
2022/07/09 07:14:27;;;;;;;5.87;4.80;;;22.80;72.70;;;;;;6174354;23;20891;-75
2022/07/09 07:16:53;;;;;;;5.73;5.10;;;22.80;72.60;;;;;;6152427;23;20372;-74
2022/07/09 07:19:21;;;;;;;6.67;5.97;;;22.80;72.60;;;;;;6176352;23;20436;-74
2022/07/09 07:21:50;;;;;;;5.03;4.53;;;22.80;72.70;;;;;;6153123;23;20384;-74
2022/07/09 07:24:16;;;;;;;7.93;5.23;;;22.80;72.60;;;;;;6152970;23;20471;-74
2022/07/09 07:26:42;;;;;;;7.03;5.20;;;22.80;72.60;;;;;;6152046;23;20387;-75
2022/07/09 07:29:09;;;;;;;8.63;5.37;;;22.80;72.60;;;;;;6153845;23;20410;-74
2022/07/09 07:31:35;;;;;;;5.03;4.53;;;22.80;72.60;;;;;;6176449;23;20216;-74
2022/07/09 07:34:06;;;;;;;5.73;4.37;;;22.80;72.60;;;;;;6178796;23;20387;-72
2022/07/09 07:36:37;;;;;;;5.90;4.50;;;22.80;72.60;;;;;;6156039;23;20444;-73
2022/07/09 07:39:03;;;;;;;6.90;4.90;;;22.90;72.70;;;;;;6153731;23;20408;-73
2022/07/09 07:41:29;;;;;;;6.50;5.17;;;22.90;72.60;;;;;;6178068;23;20388;-73
2022/07/09 07:44:00;;;;;;;6.37;5.20;;;22.90;72.70;;;;;;6179157;23;20625;-73
2022/07/09 07:46:25;;;;;;;5.47;4.67;;;22.90;72.90;;;;;;6154731;23;20394;-73
2022/07/09 07:48:51;;;;;;;6.27;4.30;;;22.90;72.80;;;;;;6179234;23;20393;-73
2022/07/09 07:51:20;;;;;;;5.70;4.10;;;22.90;72.80;;;;;;6156002;23;20415;-73
2022/07/09 07:53:51;;;;;;;6.37;4.83;;;22.90;73.00;;;;;;6178543;23;20892;-73
2022/07/09 07:56:18;;;;;;;6.77;4.70;;;22.90;73.10;;;;;;6155793;23;20483;-73
2022/07/09 07:58:44;;;;;;;5.60;4.67;;;22.90;72.90;;;;;;6154068;23;20411;-73
2022/07/09 08:01:12;;;;;;;5.00;4.47;;;22.90;72.80;;;;;;6129532;23;20468;-74
2022/07/09 08:03:38;;;;;;;5.93;4.40;;;23.00;73.20;;;;;;6154621;23;20401;-73
2022/07/09 08:06:10;;;;;;;6.43;4.73;;;23.00;73.10;;;;;;6155806;23;20369;-73
2022/07/09 08:08:38;;;;;;;5.30;4.53;;;23.00;72.90;;;;;;6155819;23;20408;-73
2022/07/09 08:11:07;;;;;;;5.97;4.60;;;23.00;73.00;;;;;;6178905;23;20405;-73
2022/07/09 08:13:39;;;;;;;5.70;3.93;;;23.00;73.10;;;;;;6178845;23;20415;-74
2022/07/09 08:16:05;;;;;;;5.03;4.30;;;23.00;73.00;;;;;;6179454;23;20448;-73
2022/07/09 08:18:31;;;;;;;7.40;4.20;;;23.00;72.90;;;;;;6178657;23;20353;-73
2022/07/09 08:21:00;;;;;;;8.40;4.17;;;23.10;73.10;;;;;;6155861;23;20581;-73
2022/07/09 08:23:28;;;;;;;6.07;3.80;;;23.10;72.90;;;;;;6155567;23;20368;-73
2022/07/09 08:25:54;;;;;;;6.40;4.50;;;23.10;72.80;;;;;;6154406;23;20786;-73
2022/07/09 08:28:22;;;;;;;6.20;4.37;;;23.10;72.90;;;;;;6178730;23;20244;-74
2022/07/09 08:30:50;;;;;;;5.10;3.87;;;23.10;72.80;;;;;;6154366;23;20441;-75
2022/07/09 08:33:19;;;;;;;4.30;3.73;;;23.10;72.70;;;;;;6179242;23;20481;-75
2022/07/09 08:35:49;;;;;;;4.00;3.60;;;23.10;72.60;;;;;;6154319;23;20389;-75
2022/07/09 08:38:21;;;;;;;5.00;3.60;;;23.20;72.70;;;;;;6179042;23;20397;-75
2022/07/09 08:40:53;;;;;;;5.67;3.60;;;23.10;72.50;;;;;;6179366;23;20421;-74
2022/07/09 08:43:19;;;;;;;4.20;3.60;;;23.20;72.50;;;;;;6155569;23;20411;-74
2022/07/09 08:45:55;;;;;;;4.60;3.60;;;23.20;72.60;;;;;;6153624;23;20401;-74
2022/07/09 08:48:23;;;;;;;4.40;3.60;;;23.20;72.70;;;;;;6155515;23;20412;-74
2022/07/09 08:50:53;;;;;;;3.97;3.13;;;23.20;72.60;;;;;;6179011;23;20891;-74
2022/07/09 08:53:20;;;;;;;4.67;3.40;;;23.20;72.40;;;;;;6178831;23;20511;-74
2022/07/09 08:55:46;;;;;;;4.30;3.27;;;23.20;72.40;;;;;;6179014;23;20389;-74
2022/07/09 08:58:15;;;;;;;4.67;3.50;;;23.20;72.50;;;;;;6177882;23;20459;-74
2022/07/09 09:00:43;;;;;;;6.07;4.03;;;23.30;72.60;;;;;;6154220;23;20388;-76
2022/07/09 09:03:09;;;;;;;4.60;3.67;;;23.30;72.70;;;;;;6155053;23;20380;-73
2022/07/09 09:05:40;;;;;;;4.00;3.23;;;23.30;72.70;;;;;;6177976;23;20377;-74
2022/07/09 09:08:20;;;;;;;5.07;3.73;;;23.30;72.70;;;;;;6153342;23;20385;-74
2022/07/09 09:10:46;;;;;;;3.80;2.70;;;23.30;72.70;;;;;;6177950;23;20523;-74
2022/07/09 09:13:15;;;;;;;3.50;3.20;;;23.30;72.70;;;;;;6152758;23;20389;-74
2022/07/09 09:15:41;;;;;;;3.57;2.90;;;23.30;72.40;;;;;;6177831;23;20451;-74
2022/07/09 09:18:09;;;;;;;4.27;2.63;;;23.40;72.80;;;;;;6155173;23;20423;-73
2022/07/09 09:20:44;;;;;;;3.50;2.97;;;23.40;72.80;;;;;;6103979;23;20592;-74
2022/07/09 09:23:15;;;;;;;3.47;2.40;;;23.40;72.70;;;;;;6153280;23;20399;-72
2022/07/09 09:25:43;;;;;;;3.13;2.63;;;23.40;72.80;;;;;;6178023;23;20777;-72
2022/07/09 09:28:12;;;;;;;2.60;2.40;;;23.40;72.70;;;;;;6178160;23;20425;-72
2022/07/09 09:30:44;;;;;;;3.33;2.73;;;23.40;72.70;;;;;;6154842;23;20975;-72
2022/07/09 09:33:18;;;;;;;2.50;2.30;;;23.50;72.90;;;;;;6152942;23;20377;-73
2022/07/09 09:35:45;;;;;;;2.63;2.37;;;23.50;73.60;;;;;;6129259;23;20398;-72
2022/07/09 09:38:13;;;;;;;3.73;2.40;;;23.50;72.80;;;;;;6153324;23;20790;-73
2022/07/09 09:40:45;;;;;;;2.27;2.07;;;23.50;73.50;;;;;;6153019;23;20385;-73
2022/07/09 09:43:14;;;;;;;2.50;2.10;;;23.60;72.70;;;;;;6177786;23;20397;-73
2022/07/09 09:45:44;;;;;;;2.03;1.83;;;23.60;72.70;;;;;;6152759;23;20404;-71
2022/07/09 09:48:10;;;;;;;2.33;2.13;;;23.60;72.70;;;;;;6177857;23;20841;-74
2022/07/09 09:50:36;;;;;;;2.33;2.13;;;23.60;72.60;;;;;;6177558;23;20433;-72
2022/07/09 09:53:03;;;;;;;2.43;2.20;;;23.70;72.70;;;;;;6154206;23;20388;-72
2022/07/09 09:55:33;;;;;;;2.43;2.23;;;23.70;72.60;;;;;;6154476;23;20727;-73
2022/07/09 09:58:02;;;;;;;2.87;2.13;;;23.70;72.60;;;;;;6177668;23;20415;-75
2022/07/09 10:00:28;;;;;;;2.00;1.80;;;23.70;72.60;;;;;;6152866;23;20922;-73
2022/07/09 10:02:57;;;;;;;2.70;2.50;;;23.80;72.60;;;;;;6153011;23;20381;-76
2022/07/09 10:05:25;;;;;;;2.90;2.00;;;23.80;72.50;;;;;;6153419;23;20467;-75
2022/07/09 10:07:53;;;;;;;1.97;1.77;;;23.80;72.40;;;;;;6178996;23;20896;-77
2022/07/09 10:10:20;;;;;;;1.80;1.70;;;23.90;72.60;;;;;;6155133;23;20429;-76
2022/07/09 10:12:49;;;;;;;1.93;1.80;;;23.90;72.50;;;;;;6153359;23;20813;-76
2022/07/09 10:15:24;;;;;;;2.30;2.10;;;23.90;72.40;;;;;;6154550;23;20543;-75
2022/07/09 10:17:56;;;;;;;2.10;1.90;;;23.90;72.40;;;;;;6155068;23;20364;-77
2022/07/09 10:20:34;;;;;;;2.07;1.90;;;23.90;72.30;;;;;;6178299;23;20416;-77
2022/07/09 10:23:27;;;;;;;2.10;1.90;;;24.00;72.40;;;;;;6119389;23;20475;-76
2022/07/09 10:25:57;;;;;;;1.93;1.83;;;24.00;72.30;;;;;;6127846;23;20432;-75
2022/07/09 10:28:25;;;;;;;1.80;1.53;;;24.00;72.30;;;;;;6152497;23;20876;-75
2022/07/09 10:30:53;;;;;;;2.10;1.90;;;24.10;72.30;;;;;;6177423;23;20409;-74
2022/07/09 10:33:35;;;;;;;2.00;1.90;;;24.10;72.10;;;;;;6154191;23;20366;-74
2022/07/09 10:36:13;;;;;;;2.13;1.93;;;24.10;72.00;;;;;;6177206;23;20445;-74
2022/07/09 10:38:39;;;;;;;2.03;1.93;;;24.10;72.00;;;;;;6153950;23;20401;-75
2022/07/09 10:41:08;;;;;;;1.60;1.50;;;24.10;71.90;;;;;;6154240;23;20721;-74
2022/07/09 10:43:50;;;;;;;2.10;1.90;;;24.10;71.80;;;;;;6154148;23;20420;-73
2022/07/09 10:46:18;;;;;;;1.67;1.57;;;24.20;71.90;;;;;;6155299;23;20412;-74
2022/07/09 10:48:47;;;;;;;1.93;1.80;;;24.20;71.90;;;;;;6155611;23;20411;-72
2022/07/09 10:51:22;;;;;;;1.63;1.53;;;24.20;71.80;;;;;;6179679;23;20404;-75
2022/07/09 10:53:53;;;;;;;1.73;1.57;;;24.20;71.70;;;;;;6157153;23;20365;-76
2022/07/09 10:56:24;;;;;;;1.57;1.47;;;24.20;71.60;;;;;;6155165;23;20459;-72
2022/07/09 10:58:55;;;;;;;1.93;1.73;;;24.20;71.60;;;;;;6179070;23;20411;-74
2022/07/09 11:01:27;;;;;;;2.00;1.80;;;24.30;71.60;;;;;;6154644;23;20395;-73
2022/07/09 11:03:55;;;;;;;1.70;1.50;;;24.30;71.60;;;;;;6179424;23;20415;-73
2022/07/09 11:06:21;;;;;;;1.53;1.37;;;24.30;71.50;;;;;;6154504;23;20771;-73
2022/07/09 11:08:47;;;;;;;1.60;1.50;;;24.30;71.50;;;;;;6178844;23;20416;-72
2022/07/09 11:11:21;;;;;;;2.13;2.00;;;24.30;71.50;;;;;;6155829;23;20915;-71
2022/07/09 11:13:54;;;;;;;2.00;1.50;;;24.40;71.60;;;;;;6155958;23;20432;-72
2022/07/09 11:16:26;;;;;;;1.70;1.60;;;24.40;71.50;;;;;;6156072;23;20378;-72
2022/07/09 11:18:57;;;;;;;1.70;1.60;;;24.40;71.60;;;;;;6178750;23;20471;-72
2022/07/09 11:21:28;;;;;;;1.90;1.80;;;24.40;71.50;;;;;;6179297;23;20385;-72
2022/07/09 11:23:56;;;;;;;1.97;1.70;;;24.50;71.60;;;;;;6156111;23;20444;-72
2022/07/09 11:26:22;;;;;;;1.70;1.60;;;24.50;71.60;;;;;;6179347;23;20400;-71
2022/07/09 11:28:48;;;;;;;3.10;1.93;;;24.50;71.40;;;;;;6153547;23;20920;-72
2022/07/09 11:31:18;;;;;;;2.00;1.90;;;24.50;71.40;;;;;;6155647;23;20479;-72
2022/07/09 11:36:41;;;;;;;1.60;1.50;;;24.60;71.30;;;;;;6179281;23;20385;-72
2022/07/09 11:39:07;;;;;;;1.67;1.57;;;24.60;71.20;;;;;;6155563;23;20954;-72
2022/07/09 11:41:43;;;;;;;2.10;1.80;;;24.60;71.20;;;;;;6155440;23;20468;-71
2022/07/09 11:44:11;;;;;;;1.90;1.80;;;24.60;71.20;;;;;;6153978;23;20431;-72
2022/07/09 11:46:40;;;;;;;2.30;2.10;;;24.60;71.10;;;;;;6155686;23;20381;-70
2022/07/09 11:49:16;;;;;;;2.27;1.80;;;24.70;71.20;;;;;;6154043;23;20991;-71
2022/07/09 11:51:42;;;;;;;3.67;2.10;;;24.70;71.20;;;;;;6153830;23;20774;-72
2022/07/09 11:54:11;;;;;;;2.40;2.20;;;24.70;71.30;;;;;;6178311;23;20466;-71
2022/07/09 11:56:45;;;;;;;2.50;2.30;;;24.70;71.40;;;;;;6155510;23;20521;-71
2022/07/09 11:59:11;;;;;;;2.07;1.87;;;24.70;71.40;;;;;;6153775;23;20911;-71
2022/07/09 12:01:38;;;;;;;2.70;2.50;;;24.80;71.50;;;;;;6153826;23;20421;-71
2022/07/09 12:04:20;;;;;;;3.23;2.33;;;24.80;71.60;;;;;;6154033;23;20395;-71
2022/07/09 12:06:54;;;;;;;2.40;2.20;;;24.80;71.60;;;;;;6178818;23;20424;-71
2022/07/09 12:09:32;;;;;;;2.90;2.60;;;24.80;71.50;;;;;;6178810;23;20499;-71
2022/07/09 12:11:59;;;;;;;2.80;2.60;;;24.80;71.80;;;;;;6178853;23;20869;-75
2022/07/09 12:14:25;;;;;;;2.70;2.50;;;24.90;71.70;;;;;;6179131;23;20500;-73
2022/07/09 12:16:51;;;;;;;2.40;2.20;;;24.90;71.90;;;;;;6153209;23;20919;-73
2022/07/09 12:19:17;;;;;;;3.30;2.80;;;24.90;71.80;;;;;;6178244;23;20396;-70
2022/07/09 12:21:43;;;;;;;3.20;3.00;;;24.90;72.00;;;;;;6176535;23;20448;-70
2022/07/09 12:24:09;;;;;;;2.73;2.53;;;24.90;71.90;;;;;;6153457;23;20401;-70
2022/07/09 12:26:35;;;;;;;3.20;2.90;;;25.00;72.80;;;;;;6152039;23;20212;-71
2022/07/09 12:29:02;;;;;;;5.30;3.17;;;25.00;72.10;;;;;;6177240;23;20424;-73
2022/07/09 12:31:38;;;;;;;3.53;3.23;;;25.00;72.10;;;;;;6152279;23;20189;-74
2022/07/09 12:34:34;;;;;;;3.17;2.97;;;25.00;72.10;;;;;;6137666;23;20775;-70
2022/07/09 12:37:05;;;;;;;4.13;3.73;;;25.10;72.10;;;;;;6153121;23;20434;-69
2022/07/09 12:39:34;;;;;;;6.20;4.90;;;25.10;72.00;;;;;;6153223;23;20404;-69
2022/07/09 12:42:01;;;;;;;6.03;5.40;;;25.20;72.50;;;;;;6155190;23;20393;-68
2022/07/09 12:44:27;;;;;;;13.37;5.77;;;25.20;72.40;;;;;;6176860;23;20400;-73
2022/07/09 12:46:55;;;;;;;5.30;4.70;;;25.20;72.50;;;;;;6152817;23;20932;-73
2022/07/09 12:49:21;;;;;;;6.63;5.47;;;25.20;73.30;;;;;;6177797;23;20474;-73
2022/07/09 12:51:47;;;;;;;5.87;5.37;;;25.20;73.80;;;;;;6177739;23;20745;-73
2022/07/09 12:54:13;;;;;;;6.20;5.63;;;25.10;73.00;;;;;;6177801;23;20377;-74
2022/07/09 12:56:42;;;;;;;5.47;4.93;;;25.10;73.40;;;;;;6178057;23;20699;-71